createdAt,value
2023-12-22T00:02:29.700Z,3.42
2023-12-22T00:04:58.033Z,4.15
2023-12-22T00:07:25.940Z,3.53
2023-12-22T00:09:56.618Z,5.37
2023-12-22T00:12:24.725Z,6.18
2023-12-22T00:14:52.490Z,6.05
2023-12-22T00:17:20.302Z,6.50
2023-12-22T00:19:48.437Z,5.00
2023-12-22T00:22:16.282Z,4.75
2023-12-22T00:24:44.073Z,5.55
2023-12-22T00:27:11.900Z,5.65
2023-12-22T00:29:39.624Z,5.30
2023-12-22T00:32:10.762Z,4.70
2023-12-22T00:34:38.810Z,3.87
2023-12-22T00:37:06.768Z,5.22
2023-12-22T00:39:34.608Z,4.85
2023-12-22T00:42:04.745Z,5.20
2023-12-22T00:44:32.344Z,4.70
2023-12-22T00:47:00.318Z,5.03
2023-12-22T00:49:28.148Z,4.20
2023-12-22T00:51:55.732Z,4.15
2023-12-22T00:54:23.244Z,4.15
2023-12-22T00:56:51.813Z,4.30
2023-12-22T00:59:19.362Z,4.22
2023-12-22T01:01:47.867Z,3.90
2023-12-22T01:04:16.321Z,3.78
2023-12-22T01:06:44.401Z,4.20
2023-12-22T01:09:11.969Z,4.03
2023-12-22T01:11:39.932Z,4.40
2023-12-22T01:14:08.389Z,4.18
2023-12-22T01:16:36.057Z,3.97
2023-12-22T01:19:04.356Z,3.60
2023-12-22T01:21:32.517Z,3.70
2023-12-22T01:24:00.319Z,3.60
2023-12-22T01:26:28.966Z,3.65
2023-12-22T01:28:56.682Z,3.20
2023-12-22T01:31:24.543Z,2.80
2023-12-22T01:33:52.756Z,2.80
2023-12-22T01:36:20.638Z,2.55
2023-12-22T01:38:49.068Z,2.50
2023-12-22T01:41:17.130Z,2.40
2023-12-22T01:43:44.958Z,2.40
2023-12-22T01:46:13.656Z,2.10
2023-12-22T01:48:41.979Z,2.30
2023-12-22T01:51:10.018Z,1.70
2023-12-22T01:53:39.969Z,1.25
2023-12-22T01:56:08.350Z,1.08
2023-12-22T01:58:37.628Z,0.77
2023-12-22T02:01:06.227Z,0.62
2023-12-22T02:03:34.474Z,0.60
2023-12-22T02:06:02.509Z,0.62
2023-12-22T02:08:33.026Z,0.60
2023-12-22T02:11:00.965Z,0.37
2023-12-22T02:13:29.914Z,0.50
2023-12-22T02:16:05.262Z,0.40
2023-12-22T02:18:40.241Z,0.40
2023-12-22T02:21:07.738Z,0.50
2023-12-22T02:23:35.845Z,0.40
2023-12-22T02:26:26.764Z,0.60
2023-12-22T02:28:57.377Z,0.70
2023-12-22T02:31:34.820Z,0.93
2023-12-22T02:34:06.328Z,1.02
2023-12-22T02:36:36.498Z,0.90
2023-12-22T02:39:05.476Z,0.77
2023-12-22T02:41:33.010Z,0.95
2023-12-22T02:44:00.854Z,0.95
2023-12-22T02:46:28.910Z,1.00
2023-12-22T02:48:56.770Z,0.93
2023-12-22T02:51:24.544Z,0.98
2023-12-22T02:53:52.622Z,1.00
2023-12-22T02:56:20.814Z,0.85
2023-12-22T02:58:48.627Z,0.80
2023-12-22T03:01:16.631Z,0.70
2023-12-22T03:03:44.362Z,0.70
2023-12-22T03:06:12.313Z,0.82
2023-12-22T03:08:42.569Z,0.60
2023-12-22T03:11:10.312Z,0.55
2023-12-22T03:13:37.850Z,0.40
2023-12-22T03:16:09.769Z,1.02
2023-12-22T03:18:40.846Z,0.30
2023-12-22T03:21:08.978Z,0.30
2023-12-22T03:23:36.744Z,0.37
2023-12-22T03:26:05.392Z,0.50
2023-12-22T03:28:34.999Z,0.30
2023-12-22T03:31:02.909Z,0.30
2023-12-22T03:33:30.727Z,0.20
2023-12-22T03:35:58.774Z,0.30
2023-12-22T03:38:26.479Z,0.60
2023-12-22T03:40:54.099Z,0.45
2023-12-22T03:43:22.262Z,0.20
2023-12-22T03:45:49.974Z,0.30
2023-12-22T03:48:17.586Z,0.30
2023-12-22T03:50:45.735Z,0.50
2023-12-22T03:53:13.544Z,0.22
2023-12-22T03:55:41.159Z,0.40
2023-12-22T03:58:09.017Z,0.28
2023-12-22T04:00:36.746Z,0.43
2023-12-22T04:03:05.257Z,0.20
2023-12-22T04:05:32.963Z,0.20
2023-12-22T04:08:00.695Z,0.40
2023-12-22T04:10:28.902Z,0.30
2023-12-22T04:12:56.619Z,0.50
2023-12-22T04:15:24.136Z,0.40
2023-12-22T04:17:52.063Z,0.50
2023-12-22T04:20:20.018Z,0.60
2023-12-22T04:22:47.811Z,0.30
2023-12-22T04:25:15.938Z,0.40
2023-12-22T04:27:43.744Z,0.33
2023-12-22T04:30:14.772Z,0.20
2023-12-22T04:32:42.980Z,0.30
2023-12-22T04:35:10.840Z,0.32
2023-12-22T04:37:38.623Z,0.30
2023-12-22T04:40:07.306Z,0.20
2023-12-22T04:42:34.821Z,0.20
2023-12-22T04:45:02.610Z,0.30
2023-12-22T04:47:30.419Z,0.47
2023-12-22T04:49:58.263Z,0.30
2023-12-22T04:52:26.113Z,0.30
2023-12-22T04:54:54.377Z,0.30
2023-12-22T04:57:23.188Z,0.30
2023-12-22T04:59:50.954Z,0.25
2023-12-22T05:02:18.864Z,0.30
2023-12-22T05:04:46.561Z,0.40
2023-12-22T05:07:14.409Z,0.40
2023-12-22T05:09:45.449Z,0.30
2023-12-22T05:12:13.265Z,0.28
2023-12-22T05:14:41.005Z,0.20
2023-12-22T05:17:08.894Z,0.47
2023-12-22T05:19:36.581Z,0.30
2023-12-22T05:22:04.675Z,0.40
2023-12-22T05:24:32.797Z,0.50
2023-12-22T05:27:00.532Z,0.32
2023-12-22T05:29:28.085Z,0.30
2023-12-22T05:31:55.980Z,0.47
2023-12-22T05:34:23.884Z,0.45
2023-12-22T05:36:51.829Z,0.73
2023-12-22T05:39:19.932Z,0.30
2023-12-22T05:41:47.694Z,0.40
2023-12-22T05:44:15.417Z,0.57
2023-12-22T05:46:43.369Z,0.50
2023-12-22T05:49:11.249Z,0.68
2023-12-22T05:51:42.312Z,0.50
2023-12-22T05:54:11.458Z,0.70
2023-12-22T05:56:39.420Z,0.57
2023-12-22T05:59:07.045Z,0.35
2023-12-22T06:01:34.949Z,0.40
2023-12-22T06:04:03.458Z,0.50
2023-12-22T06:06:31.395Z,0.40
2023-12-22T06:08:59.919Z,0.60
2023-12-22T06:11:27.785Z,0.30
2023-12-22T06:13:55.703Z,0.47
2023-12-22T06:16:23.591Z,0.52
2023-12-22T06:18:51.787Z,0.50
2023-12-22T06:21:19.652Z,0.37
2023-12-22T06:23:47.483Z,0.73
2023-12-22T06:26:15.570Z,0.50
2023-12-22T06:28:43.406Z,0.62
2023-12-22T06:31:21.473Z,0.60
2023-12-22T06:33:50.946Z,0.50
2023-12-22T06:36:20.391Z,0.85
2023-12-22T06:38:51.952Z,0.60
2023-12-22T06:41:27.814Z,0.35
2023-12-22T06:44:02.941Z,0.70
2023-12-22T06:46:31.965Z,0.45
2023-12-22T06:49:02.551Z,0.70
2023-12-22T06:51:32.820Z,0.80
2023-12-22T06:54:03.619Z,0.55
2023-12-22T06:56:33.137Z,0.40
2023-12-22T06:59:01.588Z,0.60
2023-12-22T07:01:34.148Z,0.50
2023-12-22T07:04:04.018Z,0.77
2023-12-22T07:06:33.243Z,0.60
2023-12-22T07:09:13.204Z,0.50
2023-12-22T07:11:52.072Z,0.60
2023-12-22T07:14:19.603Z,0.50
2023-12-22T07:16:47.496Z,0.50
2023-12-22T07:19:15.122Z,0.50
2023-12-22T07:21:45.626Z,0.40
2023-12-22T07:24:16.517Z,0.47
2023-12-22T07:26:47.558Z,0.73
2023-12-22T07:29:15.504Z,0.47
2023-12-22T07:31:44.097Z,0.70
2023-12-22T07:34:13.257Z,0.50
2023-12-22T07:36:45.944Z,0.43
2023-12-22T07:39:19.898Z,0.40
2023-12-22T07:41:49.345Z,0.62
2023-12-22T07:44:17.157Z,0.60
2023-12-22T07:46:44.697Z,0.63
2023-12-22T07:49:14.812Z,0.30
2023-12-22T07:51:44.270Z,0.73
2023-12-22T07:54:12.134Z,0.90
2023-12-22T07:56:39.941Z,0.40
2023-12-22T07:59:18.441Z,0.50
2023-12-22T08:01:54.813Z,0.47
2023-12-22T08:04:22.751Z,0.50
2023-12-22T08:06:50.946Z,0.50
2023-12-22T08:09:18.663Z,0.70
2023-12-22T08:11:48.292Z,0.70
2023-12-22T08:14:16.252Z,0.40
2023-12-22T08:16:45.625Z,0.60
2023-12-22T08:19:14.062Z,0.50
2023-12-22T08:21:46.218Z,0.77
2023-12-22T08:24:21.084Z,0.60
2023-12-22T08:26:51.806Z,0.50
2023-12-22T08:29:20.919Z,0.50
2023-12-22T08:31:49.019Z,0.80
2023-12-22T08:34:16.774Z,0.40
2023-12-22T08:36:45.537Z,0.70
2023-12-22T08:39:14.217Z,0.62
2023-12-22T08:41:42.777Z,0.50
2023-12-22T08:44:11.277Z,1.00
2023-12-22T08:46:39.089Z,0.40
2023-12-22T08:49:06.984Z,0.53
2023-12-22T08:51:37.849Z,0.75
2023-12-22T08:54:05.687Z,0.62
2023-12-22T08:56:33.274Z,0.70
2023-12-22T08:59:01.680Z,0.70
2023-12-22T09:01:29.328Z,0.80
2023-12-22T09:03:56.858Z,0.40
2023-12-22T09:06:26.078Z,0.80
2023-12-22T09:08:54.434Z,0.70
2023-12-22T09:11:23.066Z,0.85
2023-12-22T09:13:51.404Z,0.80
2023-12-22T09:16:28.293Z,0.80
2023-12-22T09:18:56.325Z,0.50
2023-12-22T09:21:24.349Z,0.60
2023-12-22T09:23:52.158Z,0.75
2023-12-22T09:26:20.064Z,0.40
2023-12-22T09:28:47.706Z,0.70
2023-12-22T09:31:15.217Z,0.60
2023-12-22T09:33:43.963Z,0.70
2023-12-22T09:36:13.195Z,0.77
2023-12-22T09:38:43.017Z,0.60
2023-12-22T09:41:11.877Z,0.32
2023-12-22T09:43:43.276Z,0.47
2023-12-22T09:46:11.481Z,0.40
2023-12-22T09:48:41.339Z,0.35
2023-12-22T09:51:09.661Z,0.53
2023-12-22T09:53:39.752Z,0.20
2023-12-22T09:56:07.998Z,0.40
2023-12-22T09:58:36.871Z,0.57
2023-12-22T10:01:09.256Z,0.50
2023-12-22T10:03:38.365Z,0.70
2023-12-22T10:06:07.215Z,0.65
2023-12-22T10:08:35.457Z,0.75
2023-12-22T10:11:06.136Z,0.40
2023-12-22T10:13:34.722Z,0.32
2023-12-22T10:16:02.897Z,0.50
2023-12-22T10:18:31.059Z,0.47
2023-12-22T10:20:59.080Z,0.60
2023-12-22T10:23:26.932Z,0.20
2023-12-22T10:25:55.036Z,0.30
2023-12-22T10:28:26.006Z,0.70
2023-12-22T10:30:54.864Z,0.60
2023-12-22T10:33:23.026Z,0.30
2023-12-22T10:35:53.577Z,0.80
2023-12-22T10:38:21.346Z,0.43
2023-12-22T10:40:50.019Z,0.30
2023-12-22T10:43:17.846Z,0.70
2023-12-22T10:45:45.964Z,0.55
2023-12-22T10:48:14.340Z,0.60
2023-12-22T10:50:42.694Z,0.40
2023-12-22T10:53:13.679Z,0.20
2023-12-22T10:55:42.984Z,0.40
2023-12-22T10:58:10.672Z,0.40
2023-12-22T11:00:42.685Z,0.40
2023-12-22T11:03:14.335Z,0.40
2023-12-22T11:05:45.720Z,0.73
2023-12-22T11:08:14.520Z,0.62
2023-12-22T11:10:46.677Z,0.80
2023-12-22T11:13:15.280Z,0.60
2023-12-22T11:15:44.292Z,0.68
2023-12-22T11:18:12.506Z,0.83
2023-12-22T11:20:40.944Z,0.60
2023-12-22T11:23:09.568Z,0.80
2023-12-22T11:25:37.873Z,0.62
2023-12-22T11:28:07.368Z,0.60
2023-12-22T11:30:35.289Z,0.70
2023-12-22T11:33:03.893Z,0.37
2023-12-22T11:35:33.704Z,0.32
2023-12-22T11:38:04.911Z,0.40
2023-12-22T11:40:33.158Z,0.40
2023-12-22T11:43:01.584Z,0.23
2023-12-22T11:45:32.140Z,0.47
2023-12-22T11:48:08.242Z,0.60
2023-12-22T11:50:35.857Z,0.32
2023-12-22T11:53:22.948Z,0.62
2023-12-22T11:55:57.768Z,0.57
2023-12-22T11:58:38.273Z,0.50
2023-12-22T12:01:13.679Z,0.30
2023-12-22T12:03:44.016Z,0.52
2023-12-22T12:06:14.909Z,0.45
2023-12-22T12:08:43.480Z,0.70
2023-12-22T12:11:11.049Z,0.50
2023-12-22T12:13:43.806Z,1.20
2023-12-22T12:16:13.528Z,0.40
2023-12-22T12:18:42.473Z,0.40
2023-12-22T12:21:11.459Z,0.40
2023-12-22T12:23:42.671Z,0.30
2023-12-22T12:26:12.246Z,0.43
2023-12-22T12:28:46.971Z,0.30
2023-12-22T12:31:14.789Z,0.30
2023-12-22T12:33:43.215Z,0.70
2023-12-22T12:36:12.055Z,0.80
2023-12-22T12:38:51.736Z,0.43
2023-12-22T12:41:29.035Z,0.30
2023-12-22T12:43:57.916Z,0.32
2023-12-22T12:46:36.278Z,0.60
2023-12-22T12:49:07.787Z,0.30
2023-12-22T12:51:47.976Z,0.30
2023-12-22T12:54:15.911Z,0.40
2023-12-22T12:56:44.408Z,0.40
2023-12-22T12:59:17.207Z,0.20
2023-12-22T13:01:47.050Z,0.40
2023-12-22T13:04:15.943Z,0.50
2023-12-22T13:06:47.474Z,0.45
2023-12-22T13:09:16.660Z,0.30
2023-12-22T13:11:47.331Z,0.50
2023-12-22T13:14:29.024Z,0.50
2023-12-22T13:16:58.716Z,1.33
2023-12-22T13:19:28.285Z,0.40
2023-12-22T13:21:56.857Z,0.40
2023-12-22T13:24:27.105Z,0.40
2023-12-22T13:27:07.069Z,0.30
2023-12-22T13:29:49.498Z,1.70
2023-12-22T13:32:18.567Z,0.70
2023-12-22T13:34:51.108Z,0.50
2023-12-22T13:37:19.651Z,0.50
2023-12-22T13:39:48.015Z,0.30
2023-12-22T13:42:17.554Z,0.80
2023-12-22T13:44:48.264Z,3.20
2023-12-22T13:47:20.282Z,2.03
2023-12-22T13:49:49.672Z,0.50
2023-12-22T13:52:33.715Z,0.62
2023-12-22T13:55:03.572Z,0.65
2023-12-22T13:57:31.261Z,0.30
2023-12-22T13:59:59.223Z,0.50
2023-12-22T14:02:27.778Z,0.60
2023-12-22T14:04:56.013Z,0.20
2023-12-22T14:07:23.979Z,0.40
2023-12-22T14:09:51.517Z,0.40
2023-12-22T14:12:25.008Z,0.30
2023-12-22T14:14:59.675Z,0.30
2023-12-22T14:17:28.866Z,0.70
2023-12-22T14:19:58.154Z,1.02
2023-12-22T14:22:29.220Z,0.60
2023-12-22T14:25:00.230Z,0.85
2023-12-22T14:27:28.329Z,0.80
2023-12-22T14:29:56.515Z,0.50
2023-12-22T14:32:24.347Z,0.52
2023-12-22T14:34:52.760Z,0.30
2023-12-22T14:37:22.421Z,0.90
2023-12-22T14:39:50.368Z,1.23
2023-12-22T14:42:18.519Z,0.82
2023-12-22T14:44:46.875Z,1.10
2023-12-22T14:47:15.003Z,0.60
2023-12-22T14:49:43.120Z,0.85
2023-12-22T14:52:11.300Z,0.60
2023-12-22T14:54:39.409Z,0.52
2023-12-22T14:57:07.634Z,0.65
2023-12-22T14:59:36.252Z,0.50
2023-12-22T15:02:04.177Z,0.70
2023-12-22T15:04:35.157Z,0.40
2023-12-22T15:07:05.045Z,0.80
2023-12-22T15:09:33.331Z,0.30
2023-12-22T15:12:01.450Z,0.40
2023-12-22T15:14:29.845Z,0.60
2023-12-22T15:17:02.997Z,0.60
2023-12-22T15:19:31.568Z,0.50
2023-12-22T15:21:59.414Z,0.70
2023-12-22T15:24:27.565Z,0.80
2023-12-22T15:26:55.551Z,1.10
2023-12-22T15:29:25.462Z,1.60
2023-12-22T15:31:57.964Z,1.45
2023-12-22T15:34:26.173Z,1.02
2023-12-22T15:36:54.094Z,0.82
2023-12-22T15:39:24.325Z,1.17
2023-12-22T15:41:52.190Z,1.27
2023-12-22T15:44:20.105Z,1.67
2023-12-22T15:46:47.704Z,1.48
2023-12-22T15:49:15.525Z,1.25
2023-12-22T15:51:43.195Z,0.80
2023-12-22T15:54:11.675Z,0.97
2023-12-22T15:56:40.403Z,1.10
2023-12-22T15:59:08.596Z,1.40
2023-12-22T16:01:43.393Z,1.20
2023-12-22T16:04:14.377Z,1.67
2023-12-22T16:06:42.798Z,1.40
2023-12-22T16:09:11.499Z,1.62
2023-12-22T16:11:40.078Z,1.12
2023-12-22T16:14:08.309Z,1.10
2023-12-22T16:16:36.781Z,2.03
2023-12-22T16:19:06.190Z,1.83
2023-12-22T16:21:42.071Z,1.60
2023-12-22T16:24:10.698Z,1.98
2023-12-22T16:26:39.518Z,1.40
2023-12-22T16:29:08.394Z,1.33
2023-12-22T16:31:40.393Z,3.00
2023-12-22T16:34:08.491Z,1.98
2023-12-22T16:36:36.973Z,1.42
2023-12-22T16:39:05.226Z,2.00
2023-12-22T16:41:39.076Z,1.70
2023-12-22T16:44:07.218Z,1.70
2023-12-22T16:46:34.857Z,1.75
2023-12-22T16:49:04.447Z,1.90
2023-12-22T16:51:32.296Z,2.30
2023-12-22T16:54:01.069Z,1.83
2023-12-22T16:56:28.732Z,1.53
2023-12-22T16:58:56.613Z,2.25
2023-12-22T17:01:36.304Z,3.10
2023-12-22T17:04:09.262Z,2.92
2023-12-22T17:06:47.934Z,3.17
2023-12-22T17:09:16.584Z,2.90
2023-12-22T17:11:44.602Z,2.58
2023-12-22T17:14:12.552Z,3.47
2023-12-22T17:16:40.683Z,2.40
2023-12-22T17:19:08.419Z,1.87
2023-12-22T17:21:38.170Z,2.83
2023-12-22T17:24:06.219Z,4.55
2023-12-22T17:26:34.343Z,4.57
2023-12-22T17:29:03.917Z,2.55
2023-12-22T17:31:32.387Z,1.87
2023-12-22T17:34:00.486Z,2.37
2023-12-22T17:36:31.825Z,3.85
2023-12-22T17:39:00.451Z,3.55
2023-12-22T17:41:28.569Z,3.90
2023-12-22T17:43:56.081Z,2.75
2023-12-22T17:46:24.132Z,2.87
2023-12-22T17:48:51.810Z,1.90
2023-12-22T17:51:19.501Z,2.10
2023-12-22T17:53:47.376Z,3.25
2023-12-22T17:56:16.839Z,1.40
2023-12-22T17:58:45.902Z,1.00
2023-12-22T18:01:13.753Z,0.70
2023-12-22T18:03:41.651Z,1.33
2023-12-22T18:06:09.466Z,1.45
2023-12-22T18:08:37.406Z,1.35
2023-12-22T18:11:05.317Z,1.17
2023-12-22T18:13:33.922Z,1.10
2023-12-22T18:16:01.758Z,0.82
2023-12-22T18:18:29.990Z,0.60
2023-12-22T18:20:57.615Z,0.65
2023-12-22T18:23:25.678Z,1.23
2023-12-22T18:25:53.578Z,0.88
2023-12-22T18:28:21.133Z,0.90
2023-12-22T18:30:48.735Z,0.80
2023-12-22T18:33:16.716Z,1.33
2023-12-22T18:35:44.311Z,1.10
2023-12-22T18:38:12.241Z,1.00
2023-12-22T18:40:40.171Z,1.20
2023-12-22T18:43:08.540Z,0.80
2023-12-22T18:45:36.552Z,1.15
2023-12-22T18:48:05.124Z,0.47
2023-12-22T18:50:33.402Z,0.95
2023-12-22T18:53:04.139Z,2.15
2023-12-22T18:55:33.122Z,10.55
2023-12-22T18:58:01.259Z,1.95
2023-12-22T19:00:29.231Z,1.30
2023-12-22T19:02:59.644Z,1.10
2023-12-22T19:05:27.979Z,1.00
2023-12-22T19:07:55.979Z,0.60
2023-12-22T19:10:24.699Z,0.57
2023-12-22T19:12:52.510Z,1.10
2023-12-22T19:15:20.570Z,0.70
2023-12-22T19:17:49.146Z,0.70
2023-12-22T19:20:17.072Z,0.60
2023-12-22T19:22:45.049Z,0.73
2023-12-22T19:25:13.234Z,0.77
2023-12-22T19:27:40.867Z,0.45
2023-12-22T19:30:08.888Z,1.00
2023-12-22T19:32:36.823Z,0.70
2023-12-22T19:35:05.991Z,1.48
2023-12-22T19:37:35.402Z,0.60
2023-12-22T19:40:06.997Z,0.65
2023-12-22T19:42:34.615Z,0.75
2023-12-22T19:45:02.789Z,0.80
2023-12-22T19:47:31.172Z,0.70
2023-12-22T19:49:59.244Z,0.63
2023-12-22T19:52:30.992Z,0.30
2023-12-22T19:55:02.555Z,0.73
2023-12-22T19:57:30.777Z,0.60
2023-12-22T19:59:58.344Z,0.40
2023-12-22T20:02:27.346Z,0.63
2023-12-22T20:04:56.066Z,0.60
2023-12-22T20:07:24.199Z,0.70
2023-12-22T20:09:52.124Z,0.85
2023-12-22T20:12:20.035Z,0.52
2023-12-22T20:14:47.665Z,0.60
2023-12-22T20:17:15.663Z,0.70
2023-12-22T20:19:45.464Z,0.55
2023-12-22T20:22:14.212Z,0.50
2023-12-22T20:24:42.114Z,0.40
2023-12-22T20:27:10.050Z,0.63
2023-12-22T20:29:37.622Z,0.47
2023-12-22T20:32:06.829Z,0.45
2023-12-22T20:34:34.806Z,0.80
2023-12-22T20:37:02.663Z,0.50
2023-12-22T20:39:30.481Z,0.30
2023-12-22T20:41:58.310Z,0.30
2023-12-22T20:44:27.448Z,0.40
2023-12-22T20:46:55.299Z,0.50
2023-12-22T20:49:23.727Z,0.40
2023-12-22T20:51:53.860Z,0.40
2023-12-22T20:54:21.429Z,0.50
2023-12-22T20:56:49.591Z,0.57
2023-12-22T20:59:17.514Z,0.50
2023-12-22T21:01:48.297Z,0.50
2023-12-22T21:04:17.429Z,0.30
2023-12-22T21:06:45.570Z,0.70
2023-12-22T21:09:14.159Z,0.50
2023-12-22T21:11:42.040Z,0.43
2023-12-22T21:14:09.687Z,0.40
2023-12-22T21:16:37.593Z,0.90
2023-12-22T21:19:05.844Z,0.50
2023-12-22T21:21:34.995Z,0.47
2023-12-22T21:24:02.857Z,0.40
2023-12-22T21:26:30.995Z,0.40
2023-12-22T21:28:59.813Z,0.40
2023-12-22T21:31:28.016Z,0.50
2023-12-22T21:33:56.183Z,0.60
2023-12-22T21:36:25.267Z,0.60
2023-12-22T21:38:55.694Z,0.50
2023-12-22T21:41:24.230Z,0.50
2023-12-22T21:43:52.045Z,0.40
2023-12-22T21:46:20.773Z,0.37
2023-12-22T21:48:49.370Z,0.50
2023-12-22T21:51:17.063Z,0.30
2023-12-22T21:53:44.729Z,0.50
2023-12-22T21:56:20.549Z,0.60
2023-12-22T21:58:48.141Z,0.50
2023-12-22T22:01:16.244Z,0.40
2023-12-22T22:03:44.318Z,0.20
2023-12-22T22:06:12.092Z,0.30
2023-12-22T22:08:40.001Z,0.40
2023-12-22T22:11:07.916Z,0.98
2023-12-22T22:13:36.007Z,0.45
2023-12-22T22:16:04.314Z,0.30
2023-12-22T22:18:32.755Z,0.60
2023-12-22T22:21:00.601Z,0.32
2023-12-22T22:23:28.179Z,0.30
2023-12-22T22:25:56.014Z,0.40
2023-12-22T22:28:24.069Z,0.30
2023-12-22T22:30:52.862Z,0.30
2023-12-22T22:33:21.718Z,0.30
2023-12-22T22:35:49.619Z,0.40
2023-12-22T22:40:45.528Z,0.40
2023-12-22T22:43:13.041Z,0.40
2023-12-22T22:45:42.429Z,0.40
2023-12-22T22:48:10.736Z,0.40
2023-12-22T22:50:38.556Z,0.35
2023-12-22T22:53:09.869Z,0.70
2023-12-22T22:55:37.885Z,1.30
2023-12-22T22:58:08.575Z,0.82
2023-12-22T23:00:37.214Z,0.90
2023-12-22T23:03:05.499Z,0.85
2023-12-22T23:05:36.479Z,0.90
2023-12-22T23:08:05.231Z,0.80
2023-12-22T23:10:33.393Z,0.47
2023-12-22T23:13:00.945Z,0.52
2023-12-22T23:15:28.537Z,0.50
2023-12-22T23:17:56.945Z,0.40
2023-12-22T23:20:24.929Z,0.40
2023-12-22T23:25:20.889Z,0.30
2023-12-22T23:27:48.928Z,0.20
2023-12-22T23:30:16.947Z,0.22
2023-12-22T23:32:45.279Z,0.20
2023-12-22T23:35:13.334Z,0.20
2023-12-22T23:37:41.343Z,0.20
2023-12-22T23:40:09.730Z,0.20
2023-12-22T23:42:39.471Z,0.20
2023-12-22T23:45:08.005Z,0.30
2023-12-22T23:47:36.149Z,0.20
2023-12-22T23:50:04.386Z,0.20
2023-12-22T23:52:32.420Z,0.20
2023-12-22T23:55:00.319Z,0.30
2023-12-22T23:57:28.397Z,0.20
2023-12-22T23:59:56.176Z,0.20
